Time;durP1;ratioP1;P1;durP2;ratioP2;P2;SDS_P1;SDS_P2;PMS_P1;PMS_P2;Temp;Humidity;BMP_temperature;BMP_pressure;BME280_temperature;BME280_humidity;BME280_pressure;Samples;Min_cycle;Max_cycle;Signal;HPM_P1;HPM_P2
2022/03/31 00:00:33;;;;;;;34.08;14.98;;;;;;;4.40;100.00;96751.53;5048898;28;20026;-68
2022/03/31 00:03:00;;;;;;;;;;;;;;;4.32;100.00;96744.81;5045379;28;20131;-68
2022/03/31 00:05:26;;;;;;;33.45;13.25;;;;;;;4.28;100.00;96741.44;5046781;28;19912;-68
2022/03/31 00:07:57;;;;;;;36.10;14.13;;;;;;;4.27;100.00;96737.13;5057621;28;20060;-68
2022/03/31 00:10:30;;;;;;;33.47;12.80;;;;;;;4.25;100.00;96738.91;5043632;28;20021;-68
2022/03/31 00:12:56;;;;;;;35.25;15.45;;;;;;;4.29;100.00;96735.34;5056797;28;20414;-68
2022/03/31 00:15:23;;;;;;;29.98;14.63;;;;;;;4.25;100.00;96727.66;5046283;28;20017;-68
2022/03/31 00:17:49;;;;;;;28.90;14.40;;;;;;;4.16;100.00;96727.88;5049628;28;20068;-68
2022/03/31 00:20:14;;;;;;;29.05;12.98;;;;;;;4.20;100.00;96724.28;5060959;28;20021;-68
2022/03/31 00:22:40;;;;;;;35.33;14.65;;;;;;;4.18;100.00;96711.31;5046973;28;20213;-68
2022/03/31 00:25:07;;;;;;;35.67;15.23;;;;;;;4.10;100.00;96715.00;5055149;28;20064;-68
2022/03/31 00:27:34;;;;;;;33.15;15.00;;;;;;;4.11;100.00;96714.09;5061377;28;20017;-68
2022/03/31 00:30:00;;;;;;;35.25;15.60;;;;;;;4.11;100.00;96714.97;5064768;28;20222;-68
2022/03/31 00:32:25;;;;;;;28.95;14.25;;;;;;;4.08;100.00;96715.03;5050864;28;20037;-68
2022/03/31 00:34:50;;;;;;;36.60;14.90;;;;;;;4.21;100.00;96716.44;5066066;28;20333;-68
2022/03/31 00:37:16;;;;;;;31.85;13.85;;;;;;;4.04;100.00;96716.03;5055640;28;20025;-68
2022/03/31 00:39:42;;;;;;;36.75;15.40;;;;;;;4.02;100.00;96712.59;5058484;28;20078;-68
2022/03/31 00:42:10;;;;;;;41.00;17.00;;;;;;;3.92;100.00;96707.63;5066015;28;20066;-68
2022/03/31 00:44:36;;;;;;;30.77;14.77;;;;;;;3.97;100.00;96704.06;5049187;28;20024;-68
2022/03/31 00:47:01;;;;;;;35.60;15.88;;;;;;;4.01;100.00;96707.41;5065956;28;20025;-68
2022/03/31 00:49:27;;;;;;;40.42;16.48;;;;;;;4.02;100.00;96704.78;5059083;28;20017;-68
2022/03/31 00:51:54;;;;;;;48.58;17.02;;;;;;;4.01;100.00;96708.28;5047541;28;20021;-68
2022/03/31 00:54:22;;;;;;;42.20;16.13;;;;;;;4.04;100.00;96703.00;5046535;28;20313;-68
2022/03/31 00:56:49;;;;;;;47.67;16.30;;;;;;;4.12;100.00;96705.44;5060795;28;20013;-68
2022/03/31 00:59:16;;;;;;;41.95;17.15;;;;;;;4.18;100.00;96700.91;5057183;28;20017;-68
2022/03/31 01:01:43;;;;;;;45.25;17.38;;;;;;;4.21;100.00;96700.81;5060663;28;20052;-68
2022/03/31 01:04:09;;;;;;;39.80;16.15;;;;;;;4.20;100.00;96704.34;5054187;28;20016;-68
2022/03/31 01:06:35;;;;;;;39.67;15.75;;;;;;;4.30;100.00;96700.59;5065533;28;20028;-68
2022/03/31 01:09:05;;;;;;;41.63;16.98;;;;;;;4.37;100.00;96707.34;5051107;28;20218;-68
2022/03/31 01:11:31;;;;;;;40.40;16.92;;;;;;;4.22;100.00;96697.34;5055619;28;20136;-68
2022/03/31 01:13:57;;;;;;;36.60;15.25;;;;;;;4.19;100.00;96693.97;5062614;28;20041;-68
2022/03/31 01:16:23;;;;;;;29.10;14.10;;;;;;;4.18;100.00;96700.91;5064002;28;20035;-68
2022/03/31 01:18:52;;;;;;;33.53;14.00;;;;;;;4.13;100.00;96692.38;5065123;28;20044;-68
2022/03/31 01:21:18;;;;;;;27.45;13.00;;;;;;;4.17;100.00;96688.78;5048806;28;20247;-68
2022/03/31 01:23:45;;;;;;;32.50;15.40;;;;;;;4.01;100.00;96690.06;5063830;28;20085;-68
2022/03/31 01:26:10;;;;;;;33.08;13.55;;;;;;;3.73;100.00;96686.41;5057141;28;20024;-68
2022/03/31 01:28:41;;;;;;;32.25;14.55;;;;;;;3.73;100.00;96681.22;5055518;28;20013;-68
2022/03/31 01:31:09;;;;;;;36.22;15.55;;;;;;;3.65;100.00;96682.28;5064913;28;20085;-68
2022/03/31 01:33:36;;;;;;;31.80;14.95;;;;;;;3.67;100.00;96681.34;5048167;28;20186;-68
2022/03/31 01:36:05;;;;;;;39.13;16.67;;;;;;;3.70;100.00;96670.88;5045610;28;20134;-68
2022/03/31 01:38:31;;;;;;;34.22;14.63;;;;;;;3.73;100.00;96676.00;5051687;28;20028;-68
2022/03/31 01:40:57;;;;;;;48.42;16.08;;;;;;;3.73;100.00;96665.59;5051166;28;20330;-68
2022/03/31 01:43:23;;;;;;;37.75;15.07;;;;;;;3.75;100.00;96671.63;5045413;28;20075;-68
2022/03/31 01:45:49;;;;;;;40.53;17.05;;;;;;;3.63;100.00;96674.53;5059111;28;20021;-68
2022/03/31 01:48:16;;;;;;;50.22;16.05;;;;;;;3.53;100.00;96662.63;5064756;28;20020;-68
2022/03/31 01:50:42;;;;;;;38.65;16.63;;;;;;;3.51;100.00;96668.75;5063237;28;20296;-68
2022/03/31 01:53:08;;;;;;;36.80;15.73;;;;;;;3.37;100.00;96661.28;5047467;28;20025;-68
2022/03/31 01:55:34;;;;;;;43.55;16.05;;;;;;;3.29;100.00;96657.97;5047287;28;20040;-68
2022/03/31 01:57:59;;;;;;;49.13;18.15;;;;;;;3.33;100.00;96651.84;5059189;28;20092;-68
2022/03/31 02:00:25;;;;;;;68.47;17.95;;;;;;;3.37;100.00;96653.47;5045239;28;20404;-68
2022/03/31 02:02:50;;;;;;;53.00;20.63;;;;;;;3.41;100.00;96644.72;5055942;28;20032;-68
2022/03/31 02:05:16;;;;;;;53.35;20.63;;;;;;;3.46;100.00;96645.47;5045633;28;20328;-68
2022/03/31 02:07:41;;;;;;;52.22;20.80;;;;;;;3.54;100.00;96638.31;5045231;28;20025;-68
2022/03/31 02:10:11;;;;;;;40.15;16.23;;;;;;;3.65;100.00;96635.47;5061335;28;20370;-68
2022/03/31 02:12:37;;;;;;;47.85;19.02;;;;;;;3.57;100.00;96638.25;5064200;28;20043;-68
2022/03/31 02:15:04;;;;;;;44.50;18.55;;;;;;;3.54;100.00;96638.31;5055769;28;20025;-68
2022/03/31 02:17:30;;;;;;;37.78;15.73;;;;;;;3.54;100.00;96638.31;5044822;28;20052;-68
2022/03/31 02:19:56;;;;;;;32.42;14.75;;;;;;;3.67;100.00;96642.34;5045037;28;20309;-68
2022/03/31 02:22:22;;;;;;;31.40;15.30;;;;;;;3.78;100.00;96640.34;5058505;28;20021;-68
2022/03/31 02:24:48;;;;;;;31.58;13.80;;;;;;;3.83;100.00;96643.66;5063763;28;20027;-68
2022/03/31 02:27:14;;;;;;;34.38;14.27;;;;;;;3.93;100.00;96637.34;5058719;28;20210;-68
2022/03/31 02:29:39;;;;;;;28.00;14.27;;;;;;;4.02;100.00;96634.50;5044608;28;20030;-68
2022/03/31 02:32:06;;;;;;;40.90;16.13;;;;;;;4.08;100.00;96636.09;5044328;28;20264;-68
2022/03/31 02:34:31;;;;;;;35.55;14.02;;;;;;;4.14;100.00;96634.19;5059003;28;20035;-68
2022/03/31 02:36:57;;;;;;;34.45;14.50;;;;;;;4.07;100.00;96630.06;5063591;28;20224;-68
2022/03/31 02:39:22;;;;;;;32.45;14.63;;;;;;;4.15;100.00;96619.44;5059662;28;20028;-68
2022/03/31 02:41:48;;;;;;;38.15;16.08;;;;;;;4.13;100.00;96623.81;5044413;28;20029;-68
2022/03/31 02:44:14;;;;;;;33.17;14.13;;;;;;;4.23;100.00;96625.28;5060852;28;20024;-68
2022/03/31 02:46:39;;;;;;;35.20;14.75;;;;;;;4.37;100.00;96624.03;5055583;28;20317;-68
2022/03/31 02:49:05;;;;;;;32.78;13.93;;;;;;;4.48;100.00;96616.78;5063646;28;20051;-68
2022/03/31 02:51:30;;;;;;;37.30;15.95;;;;;;;4.55;100.00;96611.41;5063422;28;20036;-68
2022/03/31 02:56:40;;;;;;;37.92;15.00;;;;;;;4.59;100.00;96608.69;5045322;28;20052;-68
2022/03/31 02:59:07;;;;;;;43.75;16.25;;;;;;;4.63;100.00;96602.47;5049663;28;20017;-68
2022/03/31 03:01:33;;;;;;;34.08;14.65;;;;;;;4.62;100.00;96592.94;5044338;28;20309;-68
2022/03/31 03:03:58;;;;;;;33.00;15.18;;;;;;;4.65;100.00;96587.63;5045429;28;20025;-68
2022/03/31 03:06:25;;;;;;;32.55;15.27;;;;;;;4.72;100.00;96593.53;5063413;28;20027;-68
2022/03/31 03:08:51;;;;;;;33.35;14.60;;;;;;;4.79;100.00;96587.25;5063383;28;20024;-68
2022/03/31 03:11:17;;;;;;;35.83;16.45;;;;;;;4.80;100.00;96592.41;5061652;28;20028;-68
2022/03/31 03:13:44;;;;;;;36.97;15.88;;;;;;;4.93;100.00;96585.09;5063326;28;20017;-68
2022/03/31 03:16:10;;;;;;;36.35;16.15;;;;;;;4.96;100.00;96583.25;5063333;28;20107;-68
2022/03/31 03:18:36;;;;;;;33.78;14.43;;;;;;;5.02;100.00;96576.97;5044804;28;20205;-68
2022/03/31 03:21:04;;;;;;;50.95;21.25;;;;;;;5.30;100.00;96572.63;5043958;28;20043;-68
2022/03/31 03:23:32;;;;;;;39.42;17.75;;;;;;;5.42;100.00;96567.03;5052416;28;20053;-68
2022/03/31 03:25:58;;;;;;;41.17;16.55;;;;;;;5.48;100.00;96580.75;5063209;28;20020;-68
2022/03/31 03:28:23;;;;;;;39.78;18.65;;;;;;;5.56;100.00;96572.66;5063206;28;20017;-68
2022/03/31 03:30:49;;;;;;;42.45;18.63;;;;;;;5.57;100.00;96569.16;5044099;28;20092;-68
2022/03/31 03:33:14;;;;;;;39.40;16.98;;;;;;;5.50;100.00;96565.00;5043618;28;20388;-68
2022/03/31 03:35:40;;;;;;;46.08;18.05;;;;;;;5.50;100.00;96565.00;5052142;28;20190;-68
2022/03/31 03:38:07;;;;;;;37.38;18.25;;;;;;;5.54;100.00;96564.03;5049523;28;20024;-68
2022/03/31 03:40:33;;;;;;;49.30;19.95;;;;;;;5.56;100.00;96564.81;5044901;28;20205;-68
2022/03/31 03:42:59;;;;;;;49.78;20.65;;;;;;;5.60;100.00;96556.84;5063082;28;20279;-68
2022/03/31 03:45:25;;;;;;;48.53;18.83;;;;;;;5.67;100.00;96565.34;5061722;28;20044;-68
2022/03/31 03:47:51;;;;;;;41.13;15.93;;;;;;;5.62;100.00;96556.78;5052606;28;20260;-68
2022/03/31 03:50:18;;;;;;;40.95;16.88;;;;;;;5.61;100.00;96553.34;5043621;28;20017;-68
2022/03/31 03:52:43;;;;;;;41.33;18.38;;;;;;;5.66;100.00;96556.66;5054551;28;20017;-68
2022/03/31 03:55:10;;;;;;;38.53;15.40;;;;;;;5.69;100.00;96556.53;5047417;28;20064;-68
2022/03/31 03:57:36;;;;;;;31.75;14.27;;;;;;;5.72;100.00;96555.56;5058738;28;20016;-68
2022/03/31 04:00:03;;;;;;;37.85;17.55;;;;;;;5.73;100.00;96547.69;5055277;28;20300;-68
2022/03/31 04:02:28;;;;;;;43.47;16.25;;;;;;;5.75;100.00;96547.66;5050409;28;20021;-68
2022/03/31 04:04:54;;;;;;;41.33;18.48;;;;;;;5.71;100.00;96543.44;5048762;28;20400;-68
2022/03/31 04:07:20;;;;;;;45.42;19.77;;;;;;;5.71;100.00;96546.06;5064005;28;20048;-68
2022/03/31 04:09:46;;;;;;;44.42;19.92;;;;;;;5.73;100.00;96542.47;5066008;28;20105;-68
2022/03/31 04:12:11;;;;;;;49.25;19.55;;;;;;;5.77;100.00;96536.28;5050165;28;20041;-68
2022/03/31 04:14:36;;;;;;;37.17;18.05;;;;;;;5.81;100.00;96539.63;5046129;28;20021;-68
2022/03/31 04:17:02;;;;;;;43.97;17.83;;;;;;;5.76;100.00;96536.31;5052360;28;20212;-68
2022/03/31 04:19:28;;;;;;;42.78;18.80;;;;;;;5.76;100.00;96538.94;5065049;28;20336;-68
2022/03/31 04:21:54;;;;;;;36.60;16.50;;;;;;;5.97;100.00;96543.44;5065729;28;20020;-68
2022/03/31 04:24:19;;;;;;;46.30;19.23;;;;;;;6.04;100.00;96547.53;5065457;28;20032;-68
2022/03/31 04:26:44;;;;;;;46.97;19.00;;;;;;;6.09;100.00;96545.63;5065427;28;20021;-68
2022/03/31 04:29:10;;;;;;;49.35;19.27;;;;;;;6.15;100.00;96550.66;5065860;28;20020;-68
2022/03/31 04:31:43;;;;;;;36.92;18.25;;;;;;;6.23;100.00;96548.59;5065375;28;20056;-68
2022/03/31 04:34:15;;;;;;;43.45;19.05;;;;;;;6.29;100.00;96538.81;5061606;28;20021;-68
2022/03/31 04:36:42;;;;;;;38.58;18.30;;;;;;;6.33;100.00;96534.31;5046468;28;20021;-68
2022/03/31 04:39:08;;;;;;;40.25;18.90;;;;;;;6.32;100.00;96538.69;5046680;28;20025;-68
2022/03/31 04:41:33;;;;;;;40.08;17.52;;;;;;;6.35;100.00;96538.59;5054688;28;20210;-68
2022/03/31 04:43:59;;;;;;;44.58;17.80;;;;;;;6.40;99.17;96541.03;5046498;28;20029;-68
2022/03/31 04:46:25;;;;;;;35.65;15.90;;;;;;;6.40;98.90;96535.81;5048287;28;20029;-68
2022/03/31 04:48:50;;;;;;;39.00;17.05;;;;;;;6.42;98.64;96534.84;5056386;28;20025;-68
2022/03/31 04:51:16;;;;;;;43.53;17.63;;;;;;;6.35;98.73;96538.59;5065909;28;20023;-68
2022/03/31 04:53:41;;;;;;;33.85;16.33;;;;;;;6.34;98.63;96538.63;5065734;28;20088;-68
2022/03/31 04:56:07;;;;;;;39.92;17.77;;;;;;;6.37;98.64;96530.69;5047574;28;20036;-68
2022/03/31 04:58:32;;;;;;;31.15;15.57;;;;;;;6.44;97.95;96530.41;5047504;28;20028;-68
2022/03/31 05:00:57;;;;;;;37.58;16.52;;;;;;;6.43;97.89;96535.69;5052385;28;20043;-68
2022/03/31 05:03:23;;;;;;;36.63;16.40;;;;;;;6.32;97.91;96536.06;5065312;28;20020;-68
2022/03/31 05:05:49;;;;;;;34.60;16.27;;;;;;;6.38;97.80;96537.59;5065608;28;20127;-68
2022/03/31 05:08:14;;;;;;;32.17;16.40;;;;;;;6.52;97.01;96537.97;5050260;28;20339;-68
2022/03/31 05:10:41;;;;;;;40.42;15.55;;;;;;;6.34;97.49;96528.19;5047401;28;20032;-68
2022/03/31 05:13:07;;;;;;;32.42;15.68;;;;;;;6.39;97.83;96529.72;5047168;28;20021;-68
2022/03/31 05:15:32;;;;;;;37.63;15.57;;;;;;;6.38;97.33;96524.53;5045955;28;20048;-68
2022/03/31 05:17:58;;;;;;;35.65;15.77;;;;;;;6.35;97.28;96529.88;5046000;28;20032;-68
2022/03/31 05:20:23;;;;;;;34.35;15.32;;;;;;;6.46;96.84;96530.38;5065004;28;20024;-68
2022/03/31 05:22:48;;;;;;;34.95;17.02;;;;;;;6.35;96.99;96535.09;5063931;28;20032;-68
2022/03/31 05:25:15;;;;;;;39.10;16.15;;;;;;;6.30;97.01;96529.22;5058084;28;20025;-68
2022/03/31 05:27:45;;;;;;;31.48;16.15;;;;;;;6.23;96.84;96527.69;5045835;28;20248;-68
2022/03/31 05:30:13;;;;;;;34.25;15.63;;;;;;;6.23;96.52;96532.94;5045720;28;20021;-68
2022/03/31 05:32:38;;;;;;;35.55;15.80;;;;;;;6.20;96.31;96528.69;5060484;28;20049;-68
2022/03/31 05:35:06;;;;;;;36.33;16.67;;;;;;;6.20;96.26;96533.03;5044687;28;20028;-68
2022/03/31 05:37:33;;;;;;;34.33;15.98;;;;;;;6.22;96.03;96531.22;5053560;28;20048;-68
2022/03/31 05:40:00;;;;;;;32.10;14.93;;;;;;;6.21;96.31;96538.19;5064039;28;20062;-68
2022/03/31 05:42:26;;;;;;;38.58;16.17;;;;;;;6.21;96.53;96534.75;5051267;28;20331;-68
2022/03/31 05:44:51;;;;;;;27.88;13.90;;;;;;;6.20;96.84;96533.03;5060149;28;20037;-68
2022/03/31 05:47:17;;;;;;;32.78;14.82;;;;;;;6.19;96.41;96526.13;5056901;28;20057;-68
2022/03/31 05:49:42;;;;;;;29.95;15.15;;;;;;;6.22;96.27;96526.00;5059522;28;20325;-68
2022/03/31 05:52:08;;;;;;;28.17;14.15;;;;;;;6.25;96.18;96531.13;5050803;28;20028;-67
2022/03/31 05:54:34;;;;;;;33.25;15.30;;;;;;;6.18;96.03;96540.09;5058126;28;20029;-67
2022/03/31 05:56:59;;;;;;;32.03;14.18;;;;;;;6.26;95.88;96532.81;5061156;28;20071;-67
2022/03/31 05:59:25;;;;;;;35.05;14.80;;;;;;;6.25;96.12;96552.03;5049247;28;20032;-67
2022/03/31 06:01:50;;;;;;;25.90;13.45;;;;;;;6.38;95.38;96545.44;5046261;28;20021;-67
2022/03/31 06:04:20;;;;;;;32.55;14.65;;;;;;;6.28;95.11;96536.25;5045238;28;20018;-68
2022/03/31 06:06:47;;;;;;;34.83;15.25;;;;;;;6.32;94.77;96549.13;5045041;28;20025;-68
2022/03/31 06:09:14;;;;;;;26.80;13.70;;;;;;;6.25;95.75;96546.78;5046094;28;20059;-68
2022/03/31 06:11:40;;;;;;;35.38;13.68;;;;;;;6.22;95.12;96549.50;5045138;28;20013;-68
2022/03/31 06:14:05;;;;;;;31.73;14.50;;;;;;;6.17;95.25;96554.06;5051412;28;20268;-68
2022/03/31 06:16:31;;;;;;;29.15;12.45;;;;;;;6.24;95.42;96550.31;5063985;28;20070;-68
2022/03/31 06:18:56;;;;;;;32.70;14.93;;;;;;;6.18;95.42;96545.31;5064459;28;20017;-68
2022/03/31 06:21:22;;;;;;;35.80;15.48;;;;;;;6.26;95.24;96544.13;5064680;28;20045;-68
2022/03/31 06:23:48;;;;;;;30.52;13.07;;;;;;;6.31;94.56;96541.34;5064889;28;20096;-68
2022/03/31 06:26:13;;;;;;;26.52;13.00;;;;;;;6.28;94.34;96549.31;5064948;28;20251;-68
2022/03/31 06:28:39;;;;;;;25.98;13.05;;;;;;;6.32;93.52;96545.66;5064210;28;20025;-68
2022/03/31 06:31:05;;;;;;;31.80;14.25;;;;;;;6.21;93.77;96547.81;5064373;28;20032;-68
2022/03/31 06:33:30;;;;;;;29.17;12.65;;;;;;;6.31;93.23;96541.34;5050808;28;20051;-68
2022/03/31 06:35:56;;;;;;;30.48;13.48;;;;;;;6.18;94.08;96540.09;5044467;28;20022;-68
2022/03/31 06:38:21;;;;;;;28.98;13.70;;;;;;;6.15;94.93;96534.97;5044483;28;20202;-68
2022/03/31 06:41:06;;;;;;;30.40;13.88;;;;;;;6.21;95.17;96529.53;5044625;28;20017;-68
2022/03/31 06:43:32;;;;;;;32.05;14.55;;;;;;;6.27;95.08;96535.38;5045793;28;20032;-68
2022/03/31 06:45:58;;;;;;;26.40;13.60;;;;;;;6.19;95.19;96533.94;5044327;28;20025;-68
2022/03/31 06:48:25;;;;;;;24.98;12.45;;;;;;;6.28;95.19;96525.78;5044273;28;20032;-68
2022/03/31 06:50:51;;;;;;;37.53;14.57;;;;;;;6.20;95.26;96533.03;5044495;28;20049;-68
2022/03/31 06:53:17;;;;;;;29.67;14.60;;;;;;;6.07;95.57;96531.75;5044185;28;20325;-67
2022/03/31 06:55:42;;;;;;;30.52;14.38;;;;;;;6.15;95.62;96529.75;5044138;28;20080;-67
2022/03/31 06:58:08;;;;;;;30.58;13.60;;;;;;;6.02;96.00;96523.25;5045269;28;20021;-67
2022/03/31 07:00:33;;;;;;;31.08;14.27;;;;;;;6.14;95.04;96533.28;5044144;28;20032;-67
2022/03/31 07:02:59;;;;;;;32.88;14.15;;;;;;;6.04;95.13;96526.66;5044066;28;20252;-67
2022/03/31 07:05:25;;;;;;;31.02;14.73;;;;;;;6.07;95.10;96529.16;5044011;28;20030;-67
2022/03/31 07:07:50;;;;;;;35.42;15.02;;;;;;;5.98;95.81;96516.44;5043984;28;20021;-67
2022/03/31 07:10:16;;;;;;;26.60;13.50;;;;;;;6.25;95.06;96516.31;5043938;28;20029;-67
2022/03/31 07:12:41;;;;;;;31.92;14.60;;;;;;;6.25;94.56;96515.44;5044171;28;20029;-67
2022/03/31 07:15:08;;;;;;;31.45;13.82;;;;;;;6.21;94.99;96524.31;5043910;28;20336;-67
2022/03/31 07:17:33;;;;;;;32.50;15.65;;;;;;;6.19;94.73;96518.28;5048750;28;20034;-67
2022/03/31 07:19:59;;;;;;;31.35;13.77;;;;;;;6.17;94.75;96514.88;5063801;28;20052;-67
2022/03/31 07:22:24;;;;;;;32.78;15.35;;;;;;;6.20;95.28;96522.59;5063506;28;20025;-67
2022/03/31 07:24:50;;;;;;;32.97;13.65;;;;;;;6.13;95.14;96532.41;5063807;28;20028;-67
2022/03/31 07:27:15;;;;;;;38.45;15.68;;;;;;;6.18;94.74;96524.41;5066037;28;20095;-67
2022/03/31 07:29:41;;;;;;;33.05;15.50;;;;;;;6.25;95.37;96526.75;5068007;28;20400;-67
2022/03/31 07:32:07;;;;;;;35.95;13.18;;;;;;;6.34;94.39;96528.19;5067750;28;20069;-67
2022/03/31 07:34:33;;;;;;;37.65;15.18;;;;;;;6.37;94.08;96541.13;5067777;28;20028;-67
2022/03/31 07:37:00;;;;;;;31.95;14.02;;;;;;;6.33;94.03;96539.56;5067816;28;20025;-67
2022/03/31 07:39:26;;;;;;;31.75;14.88;;;;;;;6.34;94.54;96543.88;5067734;28;20071;-67
2022/03/31 07:41:52;;;;;;;31.17;15.32;;;;;;;6.26;94.73;96532.81;5067111;28;20025;-67
2022/03/31 07:44:17;;;;;;;41.38;15.25;;;;;;;6.31;94.82;96530.91;5047704;28;20411;-67
2022/03/31 07:46:43;;;;;;;36.63;14.90;;;;;;;6.46;94.35;96530.38;5047598;28;20031;-67
2022/03/31 07:49:09;;;;;;;36.25;15.55;;;;;;;6.53;94.00;96537.06;5047611;28;20339;-67
2022/03/31 07:51:34;;;;;;;31.23;14.02;;;;;;;6.60;93.88;96538.53;5047809;28;20053;-67
2022/03/31 07:54:01;;;;;;;31.17;13.07;;;;;;;6.58;93.94;96529.88;5047440;28;20036;-67
2022/03/31 07:56:26;;;;;;;34.25;13.98;;;;;;;6.65;93.58;96541.84;5047419;28;20032;-67
2022/03/31 07:58:52;;;;;;;35.47;15.80;;;;;;;6.51;93.75;96534.50;5047663;28;20041;-67
2022/03/31 08:01:17;;;;;;;34.22;15.32;;;;;;;6.49;94.10;96536.31;5047362;28;20071;-67
2022/03/31 08:03:42;;;;;;;37.50;15.68;;;;;;;6.52;94.14;96538.81;5047325;28;20333;-67
2022/03/31 08:06:08;;;;;;;36.15;15.02;;;;;;;6.58;94.30;96532.50;5058173;28;20029;-67
2022/03/31 08:08:34;;;;;;;31.35;15.00;;;;;;;6.42;94.08;96533.97;5067240;28;20028;-67
2022/03/31 08:10:59;;;;;;;34.90;13.15;;;;;;;6.57;93.42;96538.63;5067110;28;20040;-67
2022/03/31 08:13:27;;;;;;;28.40;13.68;;;;;;;6.41;94.70;96537.50;5067379;28;20036;-67
2022/03/31 08:15:55;;;;;;;37.95;15.20;;;;;;;6.45;95.12;96536.47;5067264;28;20075;-67
2022/03/31 08:18:33;;;;;;;33.45;14.48;;;;;;;6.48;93.97;96539.84;5067044;28;20028;-67
2022/03/31 08:20:59;;;;;;;32.25;14.73;;;;;;;6.68;93.44;96535.63;5067018;28;20251;-67
2022/03/31 08:23:25;;;;;;;36.25;14.63;;;;;;;6.41;95.30;96533.13;5066930;28;20410;-67
2022/03/31 08:25:51;;;;;;;30.17;13.70;;;;;;;6.54;95.32;96534.41;5066902;28;20021;-67
2022/03/31 08:28:17;;;;;;;32.88;15.77;;;;;;;6.57;95.14;96538.63;5066795;28;20024;-67
2022/03/31 08:30:43;;;;;;;37.13;16.42;;;;;;;6.60;95.85;96544.63;5058238;28;20032;-67
2022/03/31 08:33:09;;;;;;;43.55;16.15;;;;;;;6.57;95.13;96538.63;5046706;28;20033;-67
2022/03/31 08:35:34;;;;;;;33.55;16.17;;;;;;;6.54;95.01;96543.97;5046662;28;20025;-67
2022/03/31 08:38:00;;;;;;;31.85;15.70;;;;;;;6.54;95.21;96549.22;5046244;28;20021;-67
2022/03/31 08:40:26;;;;;;;34.33;15.38;;;;;;;6.48;95.39;96557.25;5046659;28;20025;-67
2022/03/31 08:42:53;;;;;;;35.55;14.60;;;;;;;6.44;95.35;96553.06;5046610;28;20029;-67
2022/03/31 08:45:20;;;;;;;35.55;15.65;;;;;;;6.52;95.16;96556.28;5046574;28;20088;-67
2022/03/31 08:47:48;;;;;;;36.40;15.05;;;;;;;6.55;94.92;96556.13;5046515;28;20021;-67
2022/03/31 08:50:15;;;;;;;41.38;15.77;;;;;;;6.53;96.17;96552.75;5046488;28;20029;-67
2022/03/31 08:52:41;;;;;;;39.50;16.55;;;;;;;6.71;96.37;96552.06;5046705;28;20093;-67
2022/03/31 08:55:08;;;;;;;37.53;15.18;;;;;;;6.66;96.58;96548.75;5046290;28;20021;-67
2022/03/31 08:57:44;;;;;;;33.25;15.60;;;;;;;6.67;96.33;96549.63;5046346;28;20025;-67
2022/03/31 09:00:12;;;;;;;35.53;15.13;;;;;;;6.64;97.19;96550.56;5046312;28;20025;-67
2022/03/31 09:02:39;;;;;;;34.75;15.32;;;;;;;6.69;96.95;96543.41;5053851;28;20016;-67
2022/03/31 09:05:12;;;;;;;34.67;15.48;;;;;;;6.73;97.37;96542.38;5066152;28;20032;-67
2022/03/31 09:08:00;;;;;;;36.47;17.92;;;;;;;6.56;98.98;96536.94;5066149;28;20025;-67
2022/03/31 09:10:34;;;;;;;42.13;15.73;;;;;;;6.65;99.42;96541.84;5066041;28;20048;-67
2022/03/31 09:13:02;;;;;;;40.30;15.90;;;;;;;6.71;99.47;96541.63;5066284;28;20209;-67
2022/03/31 09:15:28;;;;;;;38.50;16.13;;;;;;;6.73;99.45;96550.22;5065820;28;20024;-67
2022/03/31 09:17:58;;;;;;;42.97;18.15;;;;;;;6.79;99.15;96544.78;5065974;28;20028;-67
2022/03/31 09:20:35;;;;;;;40.40;17.55;;;;;;;6.85;98.49;96549.78;5066189;28;20024;-67
2022/03/31 09:23:00;;;;;;;38.20;15.93;;;;;;;6.89;98.62;96540.91;5066162;28;20387;-67
2022/03/31 09:25:28;;;;;;;37.67;15.00;;;;;;;7.01;98.93;96540.44;5065803;28;20026;-67
2022/03/31 09:27:55;;;;;;;40.72;16.17;;;;;;;7.01;98.17;96540.44;5064902;28;20025;-67
2022/03/31 09:30:24;;;;;;;36.00;16.45;;;;;;;7.04;97.13;96537.72;5045705;28;20021;-67
2022/03/31 09:32:51;;;;;;;38.50;14.35;;;;;;;6.90;97.07;96537.41;5045565;28;20045;-67
2022/03/31 09:35:23;;;;;;;35.47;15.32;;;;;;;6.90;97.66;96537.41;5047625;28;20026;-67
2022/03/31 09:37:50;;;;;;;50.20;18.27;;;;;;;6.77;98.90;96530.06;5065833;28;20044;-67
2022/03/31 09:40:19;;;;;;;37.78;16.58;;;;;;;6.81;99.19;96532.50;5065774;28;20127;-67
2022/03/31 09:42:56;;;;;;;37.70;16.23;;;;;;;6.85;99.48;96523.63;5065745;28;20040;-67
2022/03/31 09:45:21;;;;;;;40.58;17.70;;;;;;;6.90;99.57;96515.63;5065389;28;20228;-67
2022/03/31 09:47:51;;;;;;;41.85;16.20;;;;;;;6.86;99.68;96520.09;5065342;28;20044;-67
2022/03/31 09:50:17;;;;;;;49.45;18.92;;;;;;;6.69;100.00;96517.28;5064476;28;20205;-67
2022/03/31 09:52:44;;;;;;;46.65;16.42;;;;;;;6.85;100.00;96510.56;5065316;28;20021;-67
2022/03/31 09:55:11;;;;;;;42.58;17.52;;;;;;;6.92;100.00;96508.53;5065140;28;20021;-67
2022/03/31 09:57:38;;;;;;;45.65;17.92;;;;;;;6.94;100.00;96507.59;5065250;28;20092;-67
2022/03/31 10:00:05;;;;;;;44.83;17.98;;;;;;;6.87;100.00;96511.38;5065139;28;20111;-67
2022/03/31 10:02:31;;;;;;;45.50;16.95;;;;;;;6.96;100.00;96510.97;5065303;28;20087;-67
2022/03/31 10:04:57;;;;;;;45.50;17.83;;;;;;;7.09;100.00;96509.59;5063660;28;20359;-67
2022/03/31 10:07:23;;;;;;;43.15;16.98;;;;;;;7.18;100.00;96506.63;5064977;28;20024;-67
2022/03/31 10:09:49;;;;;;;44.20;17.15;;;;;;;7.16;100.00;96508.47;5064974;28;20025;-67
2022/03/31 10:12:32;;;;;;;43.35;16.67;;;;;;;7.22;100.00;96507.34;5064810;28;20212;-67
2022/03/31 10:15:09;;;;;;;40.63;16.67;;;;;;;7.24;99.98;96510.78;5064772;28;20048;-67
2022/03/31 10:17:35;;;;;;;42.97;16.00;;;;;;;7.34;100.00;96507.69;5064779;28;20062;-67
2022/03/31 10:20:14;;;;;;;36.70;15.45;;;;;;;7.28;98.73;96507.94;5064724;28;20021;-67
2022/03/31 10:25:36;;;;;;;30.58;12.23;;;;;;;7.40;97.09;96506.63;5044737;28;20147;-67
2022/03/31 10:28:10;;;;;;;34.05;13.52;;;;;;;7.42;97.36;96515.25;5044678;28;20025;-67
2022/03/31 10:30:35;;;;;;;33.50;12.48;;;;;;;7.44;96.26;96509.03;5044483;28;20033;-67
2022/03/31 10:33:04;;;;;;;32.95;12.45;;;;;;;7.38;97.13;96517.16;5044398;28;20060;-67
2022/03/31 10:35:35;;;;;;;39.67;17.60;;;;;;;7.36;97.57;96512.88;5044682;28;20048;-67
2022/03/31 10:38:12;;;;;;;41.50;18.48;;;;;;;7.39;98.17;96511.00;5044493;28;20325;-67
2022/03/31 10:40:42;;;;;;;41.15;18.13;;;;;;;7.29;100.00;96506.19;5050951;28;20057;-67
2022/03/31 10:43:27;;;;;;;40.30;16.85;;;;;;;7.06;99.80;96507.13;5064582;28;20220;-67
2022/03/31 10:45:58;;;;;;;38.63;16.63;;;;;;;7.29;98.80;96514.91;5064268;28;20012;-67
2022/03/31 10:48:29;;;;;;;34.22;16.98;;;;;;;7.20;98.55;96504.81;5064356;28;20025;-67
2022/03/31 10:51:05;;;;;;;39.63;16.73;;;;;;;7.35;97.71;96501.56;5064239;28;20088;-67
2022/03/31 10:53:33;;;;;;;36.83;16.67;;;;;;;7.48;97.92;96487.06;5064192;28;20035;-67
2022/03/31 10:56:02;;;;;;;51.47;18.45;;;;;;;7.49;98.00;96491.38;5064058;28;20029;-67
2022/03/31 10:58:30;;;;;;;41.88;16.77;;;;;;;7.56;97.71;96492.00;5064118;28;20247;-67
2022/03/31 11:00:57;;;;;;;38.85;16.75;;;;;;;7.72;97.71;96493.06;5063949;28;20097;-67
2022/03/31 11:03:23;;;;;;;39.00;17.83;;;;;;;7.86;97.84;96488.94;5064019;28;20029;-67
2022/03/31 11:05:49;;;;;;;33.92;15.82;;;;;;;7.83;98.29;96491.69;5063892;28;20082;-67
2022/03/31 11:08:17;;;;;;;41.53;16.95;;;;;;;7.68;96.21;96476.63;5061192;28;20059;-67
2022/03/31 11:10:52;;;;;;;40.80;17.50;;;;;;;7.81;95.88;96485.66;5043910;28;20056;-67
2022/03/31 11:13:20;;;;;;;36.30;15.73;;;;;;;7.79;94.76;96484.03;5043967;28;20030;-67
2022/03/31 11:15:54;;;;;;;36.70;15.98;;;;;;;7.76;95.60;96476.31;5043796;28;20021;-67
2022/03/31 11:18:21;;;;;;;38.38;15.50;;;;;;;7.83;94.77;96475.97;5044196;28;20092;-67
2022/03/31 11:20:58;;;;;;;37.47;15.63;;;;;;;8.03;95.06;96478.56;5043850;28;20036;-67
2022/03/31 11:23:26;;;;;;;27.80;12.82;;;;;;;8.08;96.14;96467.91;5043833;28;20198;-67
2022/03/31 11:25:52;;;;;;;32.08;14.50;;;;;;;8.02;94.29;96470.78;5044086;28;20347;-67